RPC233 WPDL-WAWW
Flight info
| Callsign | RPC233 |
|---|---|
| Flight time | 1h 48m |
| Altitude | 20000 |
| Route | FILOM2 DOVIK DCT RALTO |
| Aircraft | C414/L-SBDFGRY/S |
Departure
| Time | 2026-04-12 07:19 |
|---|---|
| Airport | Presidente Nicolau Lobato International Airport (WPDL) |
Arrival
| Time | 2026-04-12 09:07 |
|---|---|
| Airport | Haluoleo Airport (WAWW) |
| Time | Latitude | Longitude | Altitude | Speed | Heading |
|---|---|---|---|---|---|
| 2026-04-12 07:05 | -8.54817 | 125.52500 | 36 ft | 0 kts | 253° |
| 2026-04-12 07:16 | -8.54821 | 125.52488 | 36 ft | 7 kts | 255° |
| 2026-04-12 07:16 | -8.54830 | 125.52412 | 36 ft | 14 kts | 281° |
| 2026-04-12 07:16 | -8.54787 | 125.52368 | 36 ft | 9 kts | 342° |
| 2026-04-12 07:17 | -8.54731 | 125.52355 | 35 ft | 9 kts | 346° |
| 2026-04-12 07:17 | -8.54675 | 125.52348 | 35 ft | 2 kts | 76° |
| 2026-04-12 07:18 | -8.54641 | 125.52496 | 37 ft | 50 kts | 77° |
| 2026-04-12 07:18 | -8.54526 | 125.52999 | 62 ft | 90 kts | 77° |
| 2026-04-12 07:18 | -8.54364 | 125.53677 | 190 ft | 107 kts | 78° |
| 2026-04-12 07:18 | -8.54174 | 125.54468 | 335 ft | 125 kts | 77° |
| 2026-04-12 07:19 | -8.53968 | 125.55394 | 496 ft | 142 kts | 78° |
| 2026-04-12 07:19 | -8.53702 | 125.56388 | 643 ft | 155 kts | 64° |
| 2026-04-12 07:19 | -8.52884 | 125.57117 | 712 ft | 170 kts | 21° |
| 2026-04-12 07:19 | -8.51683 | 125.57087 | 794 ft | 179 kts | 339° |
| 2026-04-12 07:20 | -8.50680 | 125.56332 | 889 ft | 184 kts | 317° |
| 2026-04-12 07:20 | -8.49723 | 125.55459 | 987 ft | 186 kts | 321° |
| 2026-04-12 07:20 | -8.48688 | 125.54649 | 1030 ft | 190 kts | 326° |
| 2026-04-12 07:20 | -8.47605 | 125.53881 | 1138 ft | 190 kts | 326° |
| 2026-04-12 07:21 | -8.46525 | 125.53124 | 1232 ft | 191 kts | 327° |
| 2026-04-12 07:21 | -8.45440 | 125.52355 | 1315 ft | 191 kts | 326° |
| 2026-04-12 07:21 | -8.44365 | 125.51564 | 1384 ft | 191 kts | 326° |
| 2026-04-12 07:21 | -8.43294 | 125.50791 | 1550 ft | 185 kts | 327° |
| 2026-04-12 07:22 | -8.42425 | 125.49884 | 1814 ft | 178 kts | 302° |
| 2026-04-12 07:22 | -8.41954 | 125.48747 | 2036 ft | 176 kts | 281° |
| 2026-04-12 07:22 | -8.41945 | 125.47515 | 2192 ft | 177 kts | 265° |
| 2026-04-12 07:22 | -8.42037 | 125.46285 | 2417 ft | 175 kts | 264° |
| 2026-04-12 07:23 | -8.42129 | 125.45084 | 2739 ft | 168 kts | 265° |
| 2026-04-12 07:23 | -8.42185 | 125.43922 | 3028 ft | 166 kts | 268° |
| 2026-04-12 07:23 | -8.42212 | 125.42764 | 3315 ft | 162 kts | 267° |
| 2026-04-12 07:23 | -8.42261 | 125.41657 | 3684 ft | 153 kts | 265° |
| 2026-04-12 07:24 | -8.42319 | 125.40608 | 4062 ft | 146 kts | 264° |
| 2026-04-12 07:24 | -8.42370 | 125.39582 | 4369 ft | 146 kts | 265° |
| 2026-04-12 07:24 | -8.42405 | 125.38564 | 4705 ft | 145 kts | 266° |
| 2026-04-12 07:24 | -8.42455 | 125.37528 | 4928 ft | 150 kts | 264° |
| 2026-04-12 07:25 | -8.42486 | 125.36495 | 5256 ft | 147 kts | 274° |
| 2026-04-12 07:25 | -8.42134 | 125.35530 | 5532 ft | 150 kts | 295° |
| 2026-04-12 07:25 | -8.41707 | 125.34550 | 5834 ft | 151 kts | 292° |
| 2026-04-12 07:25 | -8.41289 | 125.33576 | 6117 ft | 152 kts | 293° |
| 2026-04-12 07:26 | -8.40859 | 125.32595 | 6397 ft | 153 kts | 293° |
| 2026-04-12 07:26 | -8.40433 | 125.31624 | 6670 ft | 154 kts | 293° |
| 2026-04-12 07:26 | -8.40002 | 125.30636 | 6945 ft | 154 kts | 293° |
| 2026-04-12 07:26 | -8.39566 | 125.29645 | 7213 ft | 154 kts | 293° |
| 2026-04-12 07:27 | -8.39133 | 125.28651 | 7470 ft | 155 kts | 293° |
| 2026-04-12 07:27 | -8.38695 | 125.27653 | 7723 ft | 156 kts | 293° |
| 2026-04-12 07:27 | -8.38257 | 125.26651 | 7979 ft | 156 kts | 293° |
| 2026-04-12 07:27 | -8.37817 | 125.25643 | 8223 ft | 157 kts | 293° |
| 2026-04-12 07:28 | -8.37375 | 125.24632 | 8462 ft | 158 kts | 293° |
| 2026-04-12 07:28 | -8.36930 | 125.23617 | 8705 ft | 159 kts | 292° |
| 2026-04-12 07:28 | -8.36485 | 125.22596 | 8962 ft | 159 kts | 292° |
| 2026-04-12 07:28 | -8.36038 | 125.21575 | 9189 ft | 159 kts | 292° |
| 2026-04-12 07:29 | -8.35589 | 125.20555 | 9440 ft | 159 kts | 292° |
| 2026-04-12 07:29 | -8.35145 | 125.19539 | 9693 ft | 158 kts | 292° |
| 2026-04-12 07:29 | -8.34703 | 125.18528 | 9955 ft | 157 kts | 292° |
| 2026-04-12 07:29 | -8.34413 | 125.17863 | 10126 ft | 156 kts | 292° |
| 2026-04-12 07:30 | -8.33972 | 125.16867 | 10378 ft | 155 kts | 295° |
| 2026-04-12 07:30 | -8.33268 | 125.16054 | 10608 ft | 156 kts | 327° |
| 2026-04-12 07:30 | -8.31969 | 125.15415 | 10922 ft | 155 kts | 334° |
| 2026-04-12 07:30 | -8.31323 | 125.15106 | 11077 ft | 155 kts | 334° |
| 2026-04-12 07:31 | -8.30345 | 125.14645 | 11304 ft | 155 kts | 334° |
| 2026-04-12 07:31 | -8.29370 | 125.14186 | 11532 ft | 155 kts | 334° |
| 2026-04-12 07:31 | -8.28394 | 125.13728 | 11751 ft | 155 kts | 334° |
| 2026-04-12 07:31 | -8.27417 | 125.13268 | 11971 ft | 155 kts | 333° |
| 2026-04-12 07:32 | -8.26441 | 125.12808 | 12191 ft | 155 kts | 333° |
| 2026-04-12 07:32 | -8.25462 | 125.12348 | 12424 ft | 156 kts | 333° |
| 2026-04-12 07:32 | -8.24479 | 125.11886 | 12633 ft | 156 kts | 333° |
| 2026-04-12 07:32 | -8.23493 | 125.11422 | 12841 ft | 157 kts | 333° |
| 2026-04-12 07:33 | -8.22505 | 125.10958 | 13049 ft | 157 kts | 333° |
| 2026-04-12 07:33 | -8.21511 | 125.10490 | 13260 ft | 158 kts | 333° |
| 2026-04-12 07:33 | -8.20511 | 125.10019 | 13438 ft | 159 kts | 333° |
| 2026-04-12 07:33 | -8.19509 | 125.09548 | 13638 ft | 159 kts | 333° |
| 2026-04-12 07:34 | -8.18505 | 125.09075 | 13827 ft | 160 kts | 334° |
| 2026-04-12 07:34 | -8.17495 | 125.08601 | 14003 ft | 160 kts | 334° |
| 2026-04-12 07:34 | -8.16497 | 125.08131 | 14192 ft | 160 kts | 334° |
| 2026-04-12 07:34 | -8.15485 | 125.07657 | 14380 ft | 161 kts | 334° |
| 2026-04-12 07:35 | -8.14468 | 125.07179 | 14555 ft | 161 kts | 334° |
| 2026-04-12 07:35 | -8.13447 | 125.06699 | 14723 ft | 162 kts | 334° |
| 2026-04-12 07:35 | -8.12423 | 125.06216 | 14897 ft | 163 kts | 334° |
| 2026-04-12 07:35 | -8.11395 | 125.05733 | 15066 ft | 163 kts | 334° |
| 2026-04-12 07:36 | -8.10362 | 125.05247 | 15232 ft | 164 kts | 334° |
| 2026-04-12 07:36 | -8.09329 | 125.04761 | 15391 ft | 164 kts | 334° |
| 2026-04-12 07:36 | -8.08295 | 125.04274 | 15550 ft | 165 kts | 334° |
| 2026-04-12 07:36 | -8.07256 | 125.03787 | 15708 ft | 165 kts | 334° |
| 2026-04-12 07:37 | -8.06214 | 125.03297 | 15859 ft | 166 kts | 334° |
| 2026-04-12 07:37 | -8.05166 | 125.02804 | 16009 ft | 166 kts | 335° |
| 2026-04-12 07:37 | -8.04114 | 125.02310 | 16160 ft | 167 kts | 335° |
| 2026-04-12 07:37 | -8.03061 | 125.01816 | 16310 ft | 167 kts | 335° |
| 2026-04-12 07:38 | -8.02006 | 125.01320 | 16461 ft | 168 kts | 335° |
| 2026-04-12 07:38 | -8.00947 | 125.00822 | 16603 ft | 168 kts | 335° |
| 2026-04-12 07:38 | -7.99889 | 125.00325 | 16745 ft | 168 kts | 335° |
| 2026-04-12 07:38 | -7.98826 | 124.99825 | 16882 ft | 169 kts | 335° |
| 2026-04-12 07:39 | -7.97762 | 124.99325 | 17013 ft | 169 kts | 335° |
| 2026-04-12 07:39 | -7.96694 | 124.98824 | 17146 ft | 169 kts | 335° |
| 2026-04-12 07:39 | -7.95626 | 124.98322 | 17275 ft | 169 kts | 335° |
| 2026-04-12 07:39 | -7.94569 | 124.97826 | 17399 ft | 170 kts | 335° |
| 2026-04-12 07:40 | -7.93496 | 124.97322 | 17518 ft | 170 kts | 335° |
| 2026-04-12 07:40 | -7.92420 | 124.96817 | 17633 ft | 171 kts | 335° |
| 2026-04-12 07:40 | -7.91340 | 124.96309 | 17755 ft | 171 kts | 335° |
| 2026-04-12 07:40 | -7.90259 | 124.95802 | 17872 ft | 172 kts | 335° |
| 2026-04-12 07:41 | -7.89177 | 124.95293 | 17985 ft | 172 kts | 335° |
| 2026-04-12 07:41 | -7.88107 | 124.94791 | 18095 ft | 172 kts | 335° |
| 2026-04-12 07:41 | -7.87008 | 124.94275 | 18206 ft | 172 kts | 335° |
| 2026-04-12 07:41 | -7.85920 | 124.93765 | 18311 ft | 172 kts | 335° |
| 2026-04-12 07:42 | -7.84831 | 124.93253 | 18409 ft | 173 kts | 335° |
| 2026-04-12 07:42 | -7.83761 | 124.92751 | 18501 ft | 174 kts | 335° |
| 2026-04-12 07:42 | -7.82643 | 124.92226 | 18604 ft | 174 kts | 335° |
| 2026-04-12 07:43 | -7.79364 | 124.90688 | 18796 ft | 175 kts | 335° |
| 2026-04-12 07:43 | -7.78253 | 124.90166 | 18861 ft | 175 kts | 335° |
| 2026-04-12 07:43 | -7.77151 | 124.89648 | 18948 ft | 175 kts | 335° |
| 2026-04-12 07:44 | -7.76048 | 124.89131 | 19037 ft | 175 kts | 335° |
| 2026-04-12 07:44 | -7.74982 | 124.88630 | 19123 ft | 175 kts | 335° |
| 2026-04-12 07:44 | -7.73840 | 124.88095 | 19214 ft | 175 kts | 335° |
| 2026-04-12 07:44 | -7.72734 | 124.87576 | 19300 ft | 176 kts | 335° |
| 2026-04-12 07:45 | -7.71625 | 124.87056 | 19380 ft | 176 kts | 335° |
| 2026-04-12 07:45 | -7.70539 | 124.86546 | 19469 ft | 176 kts | 334° |
| 2026-04-12 07:45 | -7.69406 | 124.86014 | 19557 ft | 176 kts | 334° |
| 2026-04-12 07:45 | -7.68294 | 124.85493 | 19639 ft | 177 kts | 334° |
| 2026-04-12 07:46 | -7.67179 | 124.84970 | 19723 ft | 177 kts | 334° |
| 2026-04-12 07:46 | -7.66069 | 124.84450 | 19800 ft | 177 kts | 334° |
| 2026-04-12 07:46 | -7.64953 | 124.83926 | 19860 ft | 178 kts | 334° |
| 2026-04-12 07:46 | -7.63822 | 124.83397 | 19861 ft | 179 kts | 334° |
| 2026-04-12 07:47 | -7.62697 | 124.82857 | 19863 ft | 180 kts | 330° |
| 2026-04-12 07:47 | -7.61565 | 124.82316 | 19858 ft | 181 kts | 331° |
| 2026-04-12 07:47 | -7.60411 | 124.81780 | 19860 ft | 184 kts | 331° |
| 2026-04-12 07:47 | -7.59244 | 124.81237 | 19864 ft | 186 kts | 330° |
| 2026-04-12 07:48 | -7.58057 | 124.80680 | 19869 ft | 190 kts | 331° |
| 2026-04-12 07:48 | -7.56841 | 124.80110 | 19871 ft | 196 kts | 330° |
| 2026-04-12 07:48 | -7.55610 | 124.79531 | 19871 ft | 200 kts | 330° |
| 2026-04-12 07:48 | -7.54336 | 124.78932 | 19872 ft | 204 kts | 330° |
| 2026-04-12 07:49 | -7.53037 | 124.78324 | 19879 ft | 207 kts | 330° |
| 2026-04-12 07:49 | -7.51723 | 124.77708 | 19876 ft | 210 kts | 331° |
| 2026-04-12 07:49 | -7.50392 | 124.77084 | 19876 ft | 211 kts | 331° |
| 2026-04-12 07:49 | -7.49054 | 124.76456 | 19871 ft | 213 kts | 331° |
| 2026-04-12 07:50 | -7.47706 | 124.75825 | 19870 ft | 214 kts | 331° |
| 2026-04-12 07:50 | -7.46357 | 124.75192 | 19867 ft | 215 kts | 331° |
| 2026-04-12 07:50 | -7.45000 | 124.74557 | 19862 ft | 215 kts | 331° |
| 2026-04-12 07:50 | -7.43642 | 124.73921 | 19859 ft | 214 kts | 331° |
| 2026-04-12 07:51 | -7.42301 | 124.73293 | 19858 ft | 213 kts | 331° |
| 2026-04-12 07:51 | -7.40961 | 124.72665 | 19855 ft | 214 kts | 330° |
| 2026-04-12 07:51 | -7.39608 | 124.72030 | 19855 ft | 215 kts | 331° |
| 2026-04-12 07:51 | -7.38247 | 124.71393 | 19855 ft | 215 kts | 331° |
| 2026-04-12 07:52 | -7.36888 | 124.70756 | 19857 ft | 216 kts | 331° |
| 2026-04-12 07:52 | -7.35527 | 124.70119 | 19856 ft | 216 kts | 331° |
| 2026-04-12 07:52 | -7.34162 | 124.69480 | 19854 ft | 217 kts | 331° |
| 2026-04-12 07:52 | -7.32795 | 124.68840 | 19855 ft | 216 kts | 331° |
| 2026-04-12 07:53 | -7.31432 | 124.68201 | 19856 ft | 216 kts | 331° |
| 2026-04-12 07:53 | -7.30071 | 124.67565 | 19855 ft | 216 kts | 331° |
| 2026-04-12 07:53 | -7.28707 | 124.66926 | 19857 ft | 216 kts | 331° |
| 2026-04-12 07:53 | -7.27344 | 124.66288 | 19854 ft | 216 kts | 331° |
| 2026-04-12 07:54 | -7.25984 | 124.65651 | 19856 ft | 216 kts | 330° |
| 2026-04-12 07:54 | -7.24624 | 124.65014 | 19855 ft | 216 kts | 330° |
| 2026-04-12 07:54 | -7.23263 | 124.64377 | 19856 ft | 216 kts | 331° |
| 2026-04-12 07:54 | -7.21901 | 124.63740 | 19855 ft | 216 kts | 331° |
| 2026-04-12 07:55 | -7.20541 | 124.63104 | 19853 ft | 216 kts | 331° |
| 2026-04-12 07:55 | -7.19180 | 124.62467 | 19856 ft | 216 kts | 331° |
| 2026-04-12 07:55 | -7.17835 | 124.61838 | 19856 ft | 216 kts | 331° |
| 2026-04-12 07:55 | -7.16474 | 124.61201 | 19855 ft | 216 kts | 331° |
| 2026-04-12 07:56 | -7.15111 | 124.60564 | 19856 ft | 216 kts | 331° |
| 2026-04-12 07:56 | -7.13751 | 124.59927 | 19856 ft | 216 kts | 330° |
| 2026-04-12 07:56 | -7.12387 | 124.59289 | 19857 ft | 216 kts | 331° |
| 2026-04-12 07:56 | -7.11023 | 124.58651 | 19855 ft | 216 kts | 331° |
| 2026-04-12 07:57 | -7.09659 | 124.58014 | 19856 ft | 216 kts | 330° |
| 2026-04-12 07:57 | -7.08300 | 124.57377 | 19856 ft | 216 kts | 331° |
| 2026-04-12 07:57 | -7.06936 | 124.56741 | 19855 ft | 216 kts | 330° |
| 2026-04-12 07:57 | -7.05572 | 124.56102 | 19856 ft | 216 kts | 330° |
| 2026-04-12 07:58 | -7.04212 | 124.55466 | 19853 ft | 216 kts | 330° |
| 2026-04-12 07:58 | -7.02850 | 124.54829 | 19858 ft | 216 kts | 330° |
| 2026-04-12 07:58 | -7.01490 | 124.54194 | 19856 ft | 216 kts | 330° |
| 2026-04-12 07:58 | -7.00126 | 124.53556 | 19855 ft | 216 kts | 330° |
| 2026-04-12 07:59 | -6.98765 | 124.52920 | 19857 ft | 216 kts | 330° |
| 2026-04-12 07:59 | -6.97404 | 124.52284 | 19854 ft | 216 kts | 330° |
| 2026-04-12 07:59 | -6.96041 | 124.51647 | 19856 ft | 216 kts | 330° |
| 2026-04-12 07:59 | -6.94679 | 124.51009 | 19854 ft | 216 kts | 330° |
| 2026-04-12 08:00 | -6.93317 | 124.50373 | 19854 ft | 216 kts | 330° |
| 2026-04-12 08:00 | -6.91957 | 124.49737 | 19846 ft | 216 kts | 330° |
| 2026-04-12 08:00 | -6.90594 | 124.49102 | 19845 ft | 216 kts | 330° |
| 2026-04-12 08:00 | -6.89235 | 124.48466 | 19847 ft | 216 kts | 330° |
| 2026-04-12 08:01 | -6.87872 | 124.47829 | 19845 ft | 216 kts | 330° |
| 2026-04-12 08:01 | -6.86513 | 124.47194 | 19848 ft | 216 kts | 330° |
| 2026-04-12 08:01 | -6.85149 | 124.46556 | 19846 ft | 216 kts | 330° |
| 2026-04-12 08:01 | -6.83788 | 124.45921 | 19846 ft | 216 kts | 330° |
| 2026-04-12 08:02 | -6.82425 | 124.45284 | 19846 ft | 216 kts | 330° |
| 2026-04-12 08:02 | -6.81068 | 124.44650 | 19845 ft | 216 kts | 330° |
| 2026-04-12 08:02 | -6.79707 | 124.44015 | 19849 ft | 216 kts | 330° |
| 2026-04-12 08:02 | -6.78344 | 124.43380 | 19846 ft | 216 kts | 330° |
| 2026-04-12 08:03 | -6.76984 | 124.42743 | 19844 ft | 216 kts | 330° |
| 2026-04-12 08:03 | -6.75623 | 124.42107 | 19847 ft | 216 kts | 330° |
| 2026-04-12 08:03 | -6.74262 | 124.41472 | 19845 ft | 215 kts | 330° |
| 2026-04-12 08:03 | -6.72904 | 124.40839 | 19846 ft | 216 kts | 330° |
| 2026-04-12 08:04 | -6.71543 | 124.40203 | 19846 ft | 215 kts | 330° |
| 2026-04-12 08:04 | -6.70186 | 124.39571 | 19846 ft | 215 kts | 330° |
| 2026-04-12 08:04 | -6.68827 | 124.38935 | 19846 ft | 215 kts | 330° |
| 2026-04-12 08:04 | -6.67467 | 124.38300 | 19847 ft | 215 kts | 330° |
| 2026-04-12 08:05 | -6.66108 | 124.37665 | 19845 ft | 216 kts | 330° |
| 2026-04-12 08:05 | -6.64747 | 124.37031 | 19846 ft | 216 kts | 330° |
| 2026-04-12 08:05 | -6.63386 | 124.36395 | 19847 ft | 216 kts | 330° |
| 2026-04-12 08:05 | -6.62025 | 124.35760 | 19845 ft | 216 kts | 330° |
| 2026-04-12 08:06 | -6.60663 | 124.35125 | 19848 ft | 215 kts | 330° |
| 2026-04-12 08:06 | -6.59309 | 124.34492 | 19845 ft | 216 kts | 330° |
| 2026-04-12 08:06 | -6.57968 | 124.33867 | 19847 ft | 215 kts | 330° |
| 2026-04-12 08:06 | -6.56606 | 124.33232 | 19847 ft | 216 kts | 330° |
| 2026-04-12 08:07 | -6.55244 | 124.32596 | 19845 ft | 216 kts | 330° |
| 2026-04-12 08:07 | -6.53886 | 124.31963 | 19848 ft | 215 kts | 330° |
| 2026-04-12 08:07 | -6.52525 | 124.31329 | 19847 ft | 215 kts | 330° |
| 2026-04-12 08:07 | -6.51166 | 124.30694 | 19845 ft | 215 kts | 330° |
| 2026-04-12 08:08 | -6.49806 | 124.30060 | 19846 ft | 216 kts | 330° |
| 2026-04-12 08:08 | -6.48447 | 124.29426 | 19847 ft | 215 kts | 330° |
| 2026-04-12 08:08 | -6.47089 | 124.28793 | 19845 ft | 215 kts | 330° |
| 2026-04-12 08:08 | -6.45731 | 124.28159 | 19848 ft | 215 kts | 330° |
| 2026-04-12 08:09 | -6.44371 | 124.27525 | 19846 ft | 216 kts | 330° |
| 2026-04-12 08:09 | -6.43010 | 124.26891 | 19845 ft | 216 kts | 330° |
| 2026-04-12 08:09 | -6.41648 | 124.26256 | 19848 ft | 216 kts | 330° |
| 2026-04-12 08:09 | -6.40285 | 124.25620 | 19846 ft | 216 kts | 330° |
| 2026-04-12 08:10 | -6.38922 | 124.24984 | 19845 ft | 216 kts | 330° |
| 2026-04-12 08:10 | -6.37561 | 124.24350 | 19847 ft | 216 kts | 330° |
| 2026-04-12 08:10 | -6.36197 | 124.23715 | 19845 ft | 216 kts | 330° |
| 2026-04-12 08:10 | -6.34834 | 124.23079 | 19846 ft | 216 kts | 330° |
| 2026-04-12 08:11 | -6.33473 | 124.22444 | 19846 ft | 216 kts | 330° |
| 2026-04-12 08:11 | -6.32110 | 124.21809 | 19845 ft | 216 kts | 330° |
| 2026-04-12 08:11 | -6.30747 | 124.21174 | 19848 ft | 216 kts | 330° |
| 2026-04-12 08:11 | -6.29384 | 124.20539 | 19846 ft | 216 kts | 330° |
| 2026-04-12 08:12 | -6.28022 | 124.19904 | 19845 ft | 216 kts | 330° |
| 2026-04-12 08:12 | -6.26660 | 124.19269 | 19848 ft | 216 kts | 330° |
| 2026-04-12 08:12 | -6.25294 | 124.18633 | 19849 ft | 216 kts | 330° |
| 2026-04-12 08:12 | -6.23931 | 124.17998 | 19847 ft | 216 kts | 330° |
| 2026-04-12 08:13 | -6.22565 | 124.17362 | 19844 ft | 216 kts | 330° |
| 2026-04-12 08:13 | -6.21206 | 124.16729 | 19846 ft | 216 kts | 330° |
| 2026-04-12 08:13 | -6.19841 | 124.16093 | 19847 ft | 216 kts | 330° |
| 2026-04-12 08:13 | -6.18478 | 124.15459 | 19845 ft | 216 kts | 330° |
| 2026-04-12 08:14 | -6.17118 | 124.14825 | 19848 ft | 215 kts | 330° |
| 2026-04-12 08:14 | -6.15758 | 124.14191 | 19845 ft | 216 kts | 330° |
| 2026-04-12 08:14 | -6.14397 | 124.13558 | 19847 ft | 216 kts | 330° |
| 2026-04-12 08:14 | -6.13036 | 124.12924 | 19847 ft | 216 kts | 330° |
| 2026-04-12 08:15 | -6.11690 | 124.12298 | 19845 ft | 216 kts | 330° |
| 2026-04-12 08:15 | -6.10331 | 124.11664 | 19848 ft | 215 kts | 330° |
| 2026-04-12 08:15 | -6.08970 | 124.11030 | 19846 ft | 216 kts | 330° |
| 2026-04-12 08:15 | -6.07609 | 124.10397 | 19845 ft | 216 kts | 330° |
| 2026-04-12 08:16 | -6.06248 | 124.09763 | 19848 ft | 216 kts | 330° |
| 2026-04-12 08:16 | -6.04887 | 124.09129 | 19846 ft | 216 kts | 330° |
| 2026-04-12 08:16 | -6.03523 | 124.08495 | 19845 ft | 216 kts | 330° |
| 2026-04-12 08:16 | -6.02160 | 124.07861 | 19847 ft | 216 kts | 330° |
| 2026-04-12 08:17 | -6.00793 | 124.07224 | 19848 ft | 217 kts | 330° |
| 2026-04-12 08:17 | -5.99425 | 124.06587 | 19846 ft | 217 kts | 330° |
| 2026-04-12 08:17 | -5.98055 | 124.05950 | 19845 ft | 217 kts | 330° |
| 2026-04-12 08:17 | -5.96689 | 124.05314 | 19846 ft | 217 kts | 330° |
| 2026-04-12 08:18 | -5.95320 | 124.04677 | 19845 ft | 217 kts | 330° |
| 2026-04-12 08:18 | -5.93952 | 124.04041 | 19847 ft | 216 kts | 330° |
| 2026-04-12 08:18 | -5.93048 | 124.03620 | 19848 ft | 216 kts | 330° |
| 2026-04-12 08:18 | -5.91681 | 124.02984 | 19847 ft | 216 kts | 330° |
| 2026-04-12 08:19 | -5.89852 | 124.02132 | 19845 ft | 217 kts | 330° |
| 2026-04-12 08:19 | -5.88485 | 124.01497 | 19847 ft | 217 kts | 330° |
| 2026-04-12 08:19 | -5.87577 | 124.01075 | 19847 ft | 217 kts | 330° |
| 2026-04-12 08:19 | -5.85748 | 124.00223 | 19847 ft | 217 kts | 330° |
| 2026-04-12 08:20 | -5.84843 | 123.99803 | 19847 ft | 216 kts | 330° |
| 2026-04-12 08:20 | -5.83476 | 123.99167 | 19845 ft | 216 kts | 330° |
| 2026-04-12 08:20 | -5.82110 | 123.98530 | 19848 ft | 216 kts | 330° |
| 2026-04-12 08:20 | -5.80748 | 123.97898 | 19846 ft | 216 kts | 330° |
| 2026-04-12 08:21 | -5.79385 | 123.97265 | 19845 ft | 216 kts | 330° |
| 2026-04-12 08:21 | -5.78022 | 123.96631 | 19847 ft | 216 kts | 330° |
| 2026-04-12 08:21 | -5.76659 | 123.95996 | 19846 ft | 216 kts | 330° |
| 2026-04-12 08:21 | -5.75294 | 123.95362 | 19846 ft | 216 kts | 330° |
| 2026-04-12 08:22 | -5.73930 | 123.94728 | 19847 ft | 216 kts | 330° |
| 2026-04-12 08:22 | -5.72561 | 123.94091 | 19845 ft | 216 kts | 330° |
| 2026-04-12 08:22 | -5.71198 | 123.93457 | 19848 ft | 216 kts | 330° |
| 2026-04-12 08:22 | -5.69834 | 123.92824 | 19845 ft | 216 kts | 330° |
| 2026-04-12 08:23 | -5.68472 | 123.92191 | 19847 ft | 216 kts | 330° |
| 2026-04-12 08:23 | -5.67111 | 123.91557 | 19846 ft | 216 kts | 330° |
| 2026-04-12 08:23 | -5.65749 | 123.90925 | 19846 ft | 215 kts | 330° |
| 2026-04-12 08:23 | -5.64389 | 123.90293 | 19845 ft | 215 kts | 330° |
| 2026-04-12 08:24 | -5.63030 | 123.89662 | 19848 ft | 215 kts | 330° |
| 2026-04-12 08:24 | -5.61672 | 123.89031 | 19846 ft | 215 kts | 330° |
| 2026-04-12 08:24 | -5.60315 | 123.88400 | 19847 ft | 215 kts | 330° |
| 2026-04-12 08:24 | -5.58957 | 123.87768 | 19847 ft | 215 kts | 330° |
| 2026-04-12 08:25 | -5.57599 | 123.87136 | 19845 ft | 215 kts | 330° |
| 2026-04-12 08:25 | -5.56242 | 123.86507 | 19848 ft | 215 kts | 330° |
| 2026-04-12 08:25 | -5.54885 | 123.85876 | 19845 ft | 215 kts | 330° |
| 2026-04-12 08:25 | -5.53526 | 123.85245 | 19844 ft | 215 kts | 330° |
| 2026-04-12 08:26 | -5.52165 | 123.84612 | 19839 ft | 215 kts | 330° |
| 2026-04-12 08:26 | -5.50803 | 123.83979 | 19837 ft | 216 kts | 330° |
| 2026-04-12 08:26 | -5.49440 | 123.83347 | 19836 ft | 216 kts | 330° |
| 2026-04-12 08:26 | -5.48078 | 123.82714 | 19839 ft | 216 kts | 330° |
| 2026-04-12 08:27 | -5.46718 | 123.82082 | 19836 ft | 215 kts | 330° |
| 2026-04-12 08:27 | -5.45359 | 123.81450 | 19838 ft | 215 kts | 330° |
| 2026-04-12 08:27 | -5.44001 | 123.80820 | 19835 ft | 215 kts | 330° |
| 2026-04-12 08:27 | -5.42644 | 123.80191 | 19839 ft | 215 kts | 330° |
| 2026-04-12 08:28 | -5.41286 | 123.79559 | 19836 ft | 215 kts | 330° |
| 2026-04-12 08:28 | -5.39928 | 123.78929 | 19838 ft | 215 kts | 330° |
| 2026-04-12 08:28 | -5.38573 | 123.78301 | 19837 ft | 215 kts | 330° |
| 2026-04-12 08:28 | -5.37217 | 123.77670 | 19836 ft | 215 kts | 330° |
| 2026-04-12 08:29 | -5.35860 | 123.77040 | 19837 ft | 215 kts | 330° |
| 2026-04-12 08:29 | -5.34503 | 123.76410 | 19835 ft | 215 kts | 330° |
| 2026-04-12 08:29 | -5.33146 | 123.75781 | 19838 ft | 215 kts | 330° |
| 2026-04-12 08:29 | -5.31790 | 123.75151 | 19837 ft | 215 kts | 330° |
| 2026-04-12 08:30 | -5.30435 | 123.74521 | 19835 ft | 215 kts | 330° |
| 2026-04-12 08:30 | -5.29079 | 123.73892 | 19839 ft | 214 kts | 330° |
| 2026-04-12 08:30 | -5.27726 | 123.73265 | 19838 ft | 214 kts | 330° |
| 2026-04-12 08:30 | -5.26391 | 123.72644 | 19837 ft | 214 kts | 330° |
| 2026-04-12 08:31 | -5.25038 | 123.72016 | 19836 ft | 214 kts | 330° |
| 2026-04-12 08:31 | -5.23684 | 123.71388 | 19838 ft | 215 kts | 330° |
| 2026-04-12 08:31 | -5.22330 | 123.70760 | 19836 ft | 215 kts | 330° |
| 2026-04-12 08:31 | -5.20977 | 123.70132 | 19838 ft | 214 kts | 330° |
| 2026-04-12 08:32 | -5.19624 | 123.69505 | 19835 ft | 214 kts | 330° |
| 2026-04-12 08:32 | -5.18271 | 123.68878 | 19839 ft | 214 kts | 330° |
| 2026-04-12 08:32 | -5.16920 | 123.68250 | 19836 ft | 214 kts | 330° |
| 2026-04-12 08:32 | -5.15569 | 123.67623 | 19837 ft | 214 kts | 330° |
| 2026-04-12 08:33 | -5.14217 | 123.66996 | 19838 ft | 214 kts | 330° |
| 2026-04-12 08:33 | -5.12861 | 123.66367 | 19842 ft | 215 kts | 330° |
| 2026-04-12 08:33 | -5.11512 | 123.65741 | 19846 ft | 214 kts | 330° |
| 2026-04-12 08:33 | -5.10158 | 123.65113 | 19846 ft | 214 kts | 330° |
| 2026-04-12 08:34 | -5.08807 | 123.64486 | 19846 ft | 214 kts | 330° |
| 2026-04-12 08:34 | -5.07455 | 123.63858 | 19846 ft | 214 kts | 330° |
| 2026-04-12 08:34 | -5.06099 | 123.63230 | 19841 ft | 215 kts | 330° |
| 2026-04-12 08:34 | -5.04744 | 123.62602 | 19836 ft | 215 kts | 330° |
| 2026-04-12 08:35 | -5.03391 | 123.61975 | 19839 ft | 214 kts | 330° |
| 2026-04-12 08:35 | -5.02040 | 123.61348 | 19836 ft | 214 kts | 330° |
| 2026-04-12 08:35 | -5.00689 | 123.60722 | 19838 ft | 214 kts | 330° |
| 2026-04-12 08:35 | -4.99340 | 123.60096 | 19836 ft | 214 kts | 330° |
| 2026-04-12 08:36 | -4.97992 | 123.59471 | 19838 ft | 213 kts | 330° |
| 2026-04-12 08:36 | -4.96645 | 123.58846 | 19837 ft | 213 kts | 330° |
| 2026-04-12 08:36 | -4.95299 | 123.58222 | 19837 ft | 213 kts | 330° |
| 2026-04-12 08:36 | -4.93953 | 123.57598 | 19837 ft | 213 kts | 330° |
| 2026-04-12 08:37 | -4.92608 | 123.56974 | 19836 ft | 213 kts | 330° |
| 2026-04-12 08:37 | -4.91263 | 123.56351 | 19837 ft | 213 kts | 330° |
| 2026-04-12 08:37 | -4.89935 | 123.55736 | 19836 ft | 213 kts | 330° |
| 2026-04-12 08:37 | -4.88590 | 123.55112 | 19839 ft | 213 kts | 330° |
| 2026-04-12 08:38 | -4.87244 | 123.54488 | 19836 ft | 213 kts | 330° |
| 2026-04-12 08:38 | -4.85899 | 123.53865 | 19836 ft | 213 kts | 330° |
| 2026-04-12 08:38 | -4.84557 | 123.53244 | 19837 ft | 213 kts | 330° |
| 2026-04-12 08:38 | -4.83210 | 123.52620 | 19836 ft | 213 kts | 330° |
| 2026-04-12 08:39 | -4.81864 | 123.51995 | 19836 ft | 213 kts | 330° |
| 2026-04-12 08:39 | -4.80517 | 123.51371 | 19838 ft | 213 kts | 330° |
| 2026-04-12 08:39 | -4.79173 | 123.50747 | 19835 ft | 213 kts | 330° |
| 2026-04-12 08:39 | -4.77830 | 123.50125 | 19838 ft | 213 kts | 330° |
| 2026-04-12 08:40 | -4.76486 | 123.49503 | 19836 ft | 213 kts | 330° |
| 2026-04-12 08:40 | -4.75142 | 123.48880 | 19839 ft | 213 kts | 330° |
| 2026-04-12 08:40 | -4.73800 | 123.48259 | 19836 ft | 213 kts | 330° |
| 2026-04-12 08:40 | -4.72456 | 123.47637 | 19836 ft | 213 kts | 330° |
| 2026-04-12 08:41 | -4.71113 | 123.47014 | 19837 ft | 212 kts | 330° |
| 2026-04-12 08:41 | -4.69772 | 123.46392 | 19835 ft | 213 kts | 330° |
| 2026-04-12 08:41 | -4.68431 | 123.45771 | 19837 ft | 213 kts | 330° |
| 2026-04-12 08:41 | -4.67087 | 123.45149 | 19836 ft | 213 kts | 330° |
| 2026-04-12 08:42 | -4.65742 | 123.44526 | 19837 ft | 213 kts | 330° |
| 2026-04-12 08:42 | -4.64400 | 123.43904 | 19835 ft | 213 kts | 330° |
| 2026-04-12 08:42 | -4.63055 | 123.43281 | 19838 ft | 212 kts | 331° |
| 2026-04-12 08:42 | -4.61714 | 123.42661 | 19837 ft | 213 kts | 330° |
| 2026-04-12 08:43 | -4.60371 | 123.42038 | 19836 ft | 213 kts | 330° |
| 2026-04-12 08:43 | -4.59028 | 123.41416 | 19838 ft | 212 kts | 330° |
| 2026-04-12 08:43 | -4.57686 | 123.40796 | 19836 ft | 213 kts | 330° |
| 2026-04-12 08:43 | -4.56343 | 123.40173 | 19839 ft | 213 kts | 330° |
| 2026-04-12 08:44 | -4.55003 | 123.39551 | 19837 ft | 213 kts | 330° |
| 2026-04-12 08:44 | -4.53692 | 123.38945 | 19836 ft | 213 kts | 330° |
| 2026-04-12 08:44 | -4.52319 | 123.38310 | 19839 ft | 213 kts | 330° |
| 2026-04-12 08:44 | -4.50975 | 123.37687 | 19836 ft | 213 kts | 330° |
| 2026-04-12 08:45 | -4.49631 | 123.37066 | 19837 ft | 213 kts | 330° |
| 2026-04-12 08:45 | -4.48288 | 123.36443 | 19837 ft | 212 kts | 330° |
| 2026-04-12 08:45 | -4.46949 | 123.35824 | 19837 ft | 212 kts | 330° |
| 2026-04-12 08:45 | -4.45611 | 123.35205 | 19836 ft | 212 kts | 330° |
| 2026-04-12 08:46 | -4.44292 | 123.34594 | 19838 ft | 212 kts | 330° |
| 2026-04-12 08:46 | -4.42960 | 123.33978 | 19835 ft | 212 kts | 330° |
| 2026-04-12 08:46 | -4.40275 | 123.32735 | 19835 ft | 212 kts | 330° |
| 2026-04-12 08:47 | -4.38934 | 123.32114 | 19838 ft | 212 kts | 330° |
| 2026-04-12 08:47 | -4.37595 | 123.31495 | 19836 ft | 212 kts | 330° |
| 2026-04-12 08:47 | -4.36256 | 123.30875 | 19839 ft | 212 kts | 330° |
| 2026-04-12 08:47 | -4.34914 | 123.30254 | 19836 ft | 212 kts | 330° |
| 2026-04-12 08:48 | -4.33575 | 123.29634 | 19836 ft | 212 kts | 330° |
| 2026-04-12 08:48 | -4.32236 | 123.29015 | 19838 ft | 212 kts | 330° |
| 2026-04-12 08:48 | -4.30892 | 123.28392 | 19782 ft | 215 kts | 330° |
| 2026-04-12 08:48 | -4.29510 | 123.27749 | 19560 ft | 224 kts | 330° |
| 2026-04-12 08:49 | -4.28070 | 123.27080 | 19268 ft | 232 kts | 331° |
| 2026-04-12 08:49 | -4.26584 | 123.26394 | 18952 ft | 238 kts | 331° |
| 2026-04-12 08:49 | -4.25064 | 123.25692 | 18626 ft | 242 kts | 331° |
| 2026-04-12 08:49 | -4.23527 | 123.24981 | 18293 ft | 245 kts | 331° |
| 2026-04-12 08:50 | -4.21976 | 123.24262 | 17958 ft | 246 kts | 331° |
| 2026-04-12 08:50 | -4.20418 | 123.23541 | 17626 ft | 247 kts | 331° |
| 2026-04-12 08:50 | -4.18855 | 123.22819 | 17290 ft | 247 kts | 331° |
| 2026-04-12 08:50 | -4.17297 | 123.22098 | 16966 ft | 246 kts | 331° |
| 2026-04-12 08:51 | -4.15742 | 123.21379 | 16638 ft | 246 kts | 331° |
| 2026-04-12 08:51 | -4.14191 | 123.20661 | 16312 ft | 245 kts | 331° |
| 2026-04-12 08:51 | -4.12645 | 123.19946 | 15988 ft | 244 kts | 331° |
| 2026-04-12 08:51 | -4.11102 | 123.19232 | 15662 ft | 244 kts | 331° |
| 2026-04-12 08:52 | -4.09567 | 123.18523 | 15338 ft | 242 kts | 331° |
| 2026-04-12 08:52 | -4.08042 | 123.17818 | 15017 ft | 241 kts | 331° |
| 2026-04-12 08:52 | -4.06521 | 123.17114 | 14698 ft | 240 kts | 331° |
| 2026-04-12 08:52 | -4.05009 | 123.16414 | 14381 ft | 239 kts | 330° |
| 2026-04-12 08:53 | -4.03629 | 123.15517 | 14113 ft | 235 kts | 313° |
| 2026-04-12 08:53 | -4.02619 | 123.14249 | 13806 ft | 233 kts | 295° |
| 2026-04-12 08:53 | -4.02048 | 123.12734 | 13501 ft | 234 kts | 278° |
| 2026-04-12 08:53 | -4.01878 | 123.11137 | 13158 ft | 235 kts | 271° |
| 2026-04-12 08:54 | -4.01740 | 123.09509 | 12821 ft | 235 kts | 271° |
| 2026-04-12 08:54 | -4.01598 | 123.07882 | 12504 ft | 234 kts | 271° |
| 2026-04-12 08:54 | -4.01460 | 123.06264 | 12192 ft | 232 kts | 271° |
| 2026-04-12 08:54 | -4.01323 | 123.04664 | 11974 ft | 227 kts | 271° |
| 2026-04-12 08:55 | -4.01188 | 123.03093 | 11734 ft | 226 kts | 271° |
| 2026-04-12 08:55 | -4.01054 | 123.01523 | 11449 ft | 227 kts | 271° |
| 2026-04-12 08:55 | -4.00920 | 122.99947 | 11156 ft | 227 kts | 271° |
| 2026-04-12 08:55 | -4.00784 | 122.98367 | 10851 ft | 228 kts | 271° |
| 2026-04-12 08:56 | -4.00649 | 122.96785 | 10548 ft | 229 kts | 271° |
| 2026-04-12 08:56 | -4.00513 | 122.95197 | 10244 ft | 229 kts | 271° |
| 2026-04-12 08:56 | -4.00377 | 122.93610 | 9936 ft | 229 kts | 271° |
| 2026-04-12 08:56 | -4.00241 | 122.92026 | 9665 ft | 228 kts | 271° |
| 2026-04-12 08:57 | -4.00106 | 122.90446 | 9403 ft | 227 kts | 271° |
| 2026-04-12 08:57 | -4.00002 | 122.88873 | 9165 ft | 225 kts | 264° |
| 2026-04-12 08:57 | -4.00242 | 122.87335 | 8908 ft | 224 kts | 255° |
| 2026-04-12 08:57 | -4.00519 | 122.85795 | 8635 ft | 225 kts | 256° |
| 2026-04-12 08:58 | -4.00784 | 122.84253 | 8379 ft | 225 kts | 256° |
| 2026-04-12 08:58 | -4.01055 | 122.82713 | 8123 ft | 224 kts | 256° |
| 2026-04-12 08:58 | -4.01326 | 122.81177 | 7852 ft | 224 kts | 256° |
| 2026-04-12 08:58 | -4.01599 | 122.79634 | 7552 ft | 226 kts | 256° |
| 2026-04-12 08:59 | -4.01872 | 122.78088 | 7240 ft | 225 kts | 256° |
| 2026-04-12 08:59 | -4.02141 | 122.76558 | 6953 ft | 222 kts | 256° |
| 2026-04-12 08:59 | -4.02405 | 122.75062 | 6660 ft | 220 kts | 256° |
| 2026-04-12 08:59 | -4.02672 | 122.73553 | 6359 ft | 219 kts | 256° |
| 2026-04-12 09:00 | -4.02933 | 122.72061 | 6063 ft | 216 kts | 256° |
| 2026-04-12 09:00 | -4.03188 | 122.70603 | 5767 ft | 209 kts | 255° |
| 2026-04-12 09:00 | -4.03413 | 122.69176 | 5476 ft | 205 kts | 257° |
| 2026-04-12 09:00 | -4.03628 | 122.67777 | 5205 ft | 202 kts | 256° |
| 2026-04-12 09:01 | -4.03872 | 122.66403 | 4926 ft | 200 kts | 255° |
| 2026-04-12 09:01 | -4.04117 | 122.65034 | 4571 ft | 199 kts | 255° |
| 2026-04-12 09:01 | -4.04355 | 122.63677 | 4162 ft | 196 kts | 256° |
| 2026-04-12 09:01 | -4.04586 | 122.62350 | 3753 ft | 191 kts | 256° |
| 2026-04-12 09:02 | -4.04813 | 122.61056 | 3428 ft | 185 kts | 255° |
| 2026-04-12 09:02 | -4.05052 | 122.59812 | 3203 ft | 178 kts | 253° |
| 2026-04-12 09:02 | -4.05315 | 122.58639 | 3079 ft | 168 kts | 250° |
| 2026-04-12 09:02 | -4.05627 | 122.57531 | 2893 ft | 165 kts | 264° |
| 2026-04-12 09:03 | -4.05630 | 122.56414 | 2758 ft | 152 kts | 257° |
| 2026-04-12 09:03 | -4.05788 | 122.55423 | 2554 ft | 138 kts | 256° |
| 2026-04-12 09:03 | -4.05883 | 122.54821 | 2443 ft | 133 kts | 260° |
| 2026-04-12 09:03 | -4.06012 | 122.53949 | 2276 ft | 118 kts | 259° |
| 2026-04-12 09:04 | -4.06152 | 122.53183 | 2124 ft | 109 kts | 257° |
| 2026-04-12 09:04 | -4.06289 | 122.52441 | 1981 ft | 108 kts | 258° |
| 2026-04-12 09:04 | -4.06419 | 122.51722 | 1844 ft | 105 kts | 258° |
| 2026-04-12 09:04 | -4.06544 | 122.51000 | 1707 ft | 105 kts | 259° |
| 2026-04-12 09:05 | -4.06682 | 122.50241 | 1568 ft | 116 kts | 259° |
| 2026-04-12 09:05 | -4.06825 | 122.49433 | 1411 ft | 120 kts | 259° |
| 2026-04-12 09:05 | -4.06975 | 122.48609 | 1249 ft | 121 kts | 259° |
| 2026-04-12 09:05 | -4.07122 | 122.47784 | 1085 ft | 119 kts | 259° |
| 2026-04-12 09:06 | -4.07262 | 122.46995 | 921 ft | 112 kts | 259° |
| 2026-04-12 09:06 | -4.07389 | 122.46242 | 806 ft | 107 kts | 259° |
| 2026-04-12 09:06 | -4.07510 | 122.45518 | 701 ft | 104 kts | 259° |
| 2026-04-12 09:06 | -4.07646 | 122.44802 | 580 ft | 105 kts | 258° |
| 2026-04-12 09:07 | -4.07776 | 122.44077 | 418 ft | 106 kts | 259° |
| 2026-04-12 09:07 | -4.07906 | 122.43367 | 260 ft | 101 kts | 259° |
| 2026-04-12 09:07 | -4.08022 | 122.42718 | 168 ft | 83 kts | 259° |
| 2026-04-12 09:07 | -4.08090 | 122.42333 | 167 ft | 32 kts | 259° |
| 2026-04-12 09:08 | -4.08125 | 122.42138 | 166 ft | 18 kts | 261° |
| 2026-04-12 09:08 | -4.08132 | 122.42078 | 166 ft | 8 kts | 281° |
| 2026-04-12 09:08 | -4.08089 | 122.42043 | 165 ft | 10 kts | 353° |
| 2026-04-12 09:08 | -4.08010 | 122.42029 | 165 ft | 11 kts | 348° |
| 2026-04-12 09:09 | -4.07937 | 122.42015 | 165 ft | 11 kts | 349° |
| 2026-04-12 09:09 | -4.07857 | 122.42001 | 165 ft | 8 kts | 348° |
| 2026-04-12 09:09 | -4.07834 | 122.41996 | 165 ft | 5 kts | 345° |
| 2026-04-12 09:09 | -4.07817 | 122.41963 | 165 ft | 7 kts | 258° |
| 2026-04-12 09:10 | -4.07822 | 122.41940 | 165 ft | 0 kts | 257° |
| 2026-04-12 09:10 | -4.07826 | 122.41917 | 165 ft | 4 kts | 266° |
| 2026-04-12 09:10 | -4.07804 | 122.41908 | 165 ft | 4 kts | 349° |
| 2026-04-12 09:10 | -4.07773 | 122.41902 | 165 ft | 4 kts | 349° |
| 2026-04-12 09:11 | -4.07760 | 122.41899 | 165 ft | 0 kts | 351° |
| 2026-04-12 09:11 | -4.07758 | 122.41899 | 165 ft | 0 kts | 349° |